Tiempo atmosférico en la estación meteorológica de Porreres, Illes Balears (120 m.)



Fecha
DESCASC
Temp. máxima en grados centígrados (hora)
DESCASC
Temp. mínima en grados centígrados (hora)
DESCASC
Temp. media en grados centígrados
DESCASC
Racha de viento máxima en m/sg (hora)
DESCASC
Velocidad máxima media en intervalos de 10 minutos(hora)
DESCASC
Precipitaciones diarias en mm
DESCASC
Precipitaciones de 00:00 a 06:00 en mm
DESCASC
Precipitaciones de 06:00 a 12:00 en mm
DESCASC
Precipitaciones de 12:00 a 18:00 en mm
DESCASC
Precipitaciones de 18:00 a 24:00 en mm
DESCASC
14-12-2019 21.4 (13:10) 12.4 (21:10) 16.9 11.11 (00:10) 6.94 (00:10) 0 0 0 0 0
13-12-2019 -- (--) -- (--) -- -- (--) -- (--) -- 0 0 0 --
12-12-2019 15.4 (11:50) 9.4 (01:50) 12.4 13.89 (23:40) 8.06 (23:40) 0 0 0 0 0
11-12-2019 17 (13:20) 2.7 (00:00) 9.9 8.89 (18:40) 5.56 (11:50) 0 0 0 0 0
10-12-2019 16.1 (13:00) 5.2 (00:00) 10.7 7.22 (11:10) 3.89 (11:00) 0 0 0 0 0
09-12-2019 17.8 (11:20) 9 (00:00) 13.4 14.17 (12:40) 8.33 (12:40) 0 0 0 0 0
08-12-2019 17.1 (12:50) 5.5 (00:00) 11.3 6.67 (14:40) 3.89 (14:40) 0.1 0 0.1 0 0
07-12-2019 17 (13:20) 6.4 (00:00) 11.7 3.06 (13:50) 1.94 (05:00) 0.1 0 0.1 0 0
06-12-2019 17.9 (13:40) 8.5 (00:00) 13.2 3.61 (12:40) 2.22 (12:40) 0 0 0 0 0
05-12-2019 17.7 (14:00) 6.3 (00:00) 12 4.72 (14:40) 2.22 (14:00) 0.2 0.1 0.1 0 0
04-12-2019 -- (--) -- (--) -- -- (--) -- (--) -- -- -- -- --
03-12-2019 14.9 (21:30) 10.9 (00:00) 12.9 8.33 (11:20) 3.89 (23:59) 4.4 0 0 0 4.4
02-12-2019 15 (13:20) 11.6 (00:00) 13.3 6.67 (16:10) 2.5 (06:20) 2.4 0.1 2.3 0 0
01-12-2019 18.7 (12:00) 12.5 (00:00) 15.6 7.78 (13:20) 3.89 (12:40) 0 0 0 0 0
30-11-2019 19.3 (13:20) 9.5 (00:00) 14.4 6.11 (15:10) 3.33 (16:40) 0 0 0 0 0
29-11-2019 21.8 (13:50) 10 (00:00) 15.9 9.44 (01:50) 5.28 (01:50) 0 0 0 0 0
28-11-2019 19.5 (13:20) 10.1 (00:00) 14.8 10.28 (16:00) 6.11 (15:50) 0 0 0 0 0
27-11-2019 19.8 (13:20) 13.1 (00:00) 16.4 10.83 (12:20) 7.22 (12:30) 0 0 0 0 0
26-11-2019 19.5 (12:10) 8 (00:00) 13.8 8.61 (23:59) 4.72 (16:00) 0 0 0 0 0
25-11-2019 19.2 (15:10) 7.7 (00:00) 13.5 7.78 (00:40) 4.44 (13:30) 0 0 0 0 0
24-11-2019 15.6 (14:20) 10.9 (00:00) 13.3 10.28 (00:40) 4.72 (00:50) 0.1 0.1 0 0 0
23-11-2019 16.4 (12:40) 10.8 (00:00) 13.6 16.67 (10:50) 9.17 (10:50) 12.5 7.8 0 4.7 0
22-11-2019 16.8 (11:50) 8.8 (00:00) 12.8 13.61 (23:20) 6.39 (23:20) 25.4 2.4 6.1 5 11.9
21-11-2019 15.5 (10:50) 6.6 (00:00) 11 9.44 (14:10) 5.28 (12:40) 3.5 3.5 0 0 0
20-11-2019 13.4 (13:20) 3.2 (00:00) 8.3 4.44 (14:40) 2.22 (13:30) 1.6 0 0 0.7 0.9
19-11-2019 14.5 (10:50) 4.3 (00:00) 9.4 5.56 (11:30) 3.06 (15:40) 0 0 0 0 0
18-11-2019 14.2 (14:30) 8.4 (00:00) 11.3 11.67 (16:20) 6.67 (13:30) 0.4 0.4 0 0 0
17-11-2019 14.6 (13:10) 7.2 (00:00) 10.9 10 (11:40) 6.39 (13:20) 0.3 0.3 0 0 0
16-11-2019 13 (13:30) 4.2 (00:00) 8.6 8.61 (14:50) 5.56 (14:50) 0.1 0 0 0 0.1

Gráficas

Temp. máximas Temp. mínimas Temp. medias Precipitaciones Rachas de viento máximas Velocidades máximas media en intervalos de 10 minutos

Datos horarios

Fecha y hora oficial Temperatura (ºC) Velocidad del viento (km/h) Dirección del viento Racha (km/h) Dirección de racha Precipitación (mm) Presión (hPa) Tendencia (hPa) Humedad (%)
2019-12-15 23:00:00 9.5 0 Calma 7 Sudoeste 0 -- -- 88
2019-12-15 22:00:00 11 4 Oeste 11 Sudoeste 0 -- -- 86
2019-12-15 21:00:00 12.3 5 Sudoeste 10 Sudoeste 0 -- -- 85
2019-12-15 20:00:00 12.7 7 Sudoeste 14 Sudoeste 0 -- -- 84
2019-12-15 19:00:00 12.9 6 Sudoeste 15 Sudoeste 0 -- -- 82
2019-12-15 18:00:00 13.4 5 Sudoeste 17 Sudoeste 0 -- -- 77
2019-12-15 17:00:00 14.2 9 Sudoeste 21 Oeste 0 -- -- 65
2019-12-15 16:00:00 15.1 13 Sudoeste 22 Sudoeste 0 -- -- 59
2019-12-15 15:00:00 15.3 13 Oeste 26 Oeste 0 -- -- 56
2019-12-15 14:00:00 16.4 16 Oeste 26 Oeste 0 -- -- 52
2019-12-15 13:00:00 16.4 12 Sudoeste 26 Sudoeste 0 -- -- 59
2019-12-15 12:00:00 15.7 15 Sudoeste 27 Sudoeste 0 -- -- 63
2019-12-15 11:00:00 15 17 Sudoeste 27 Sudoeste 0 -- -- 70
2019-12-15 10:00:00 13.4 8 Oeste 17 Oeste 0 -- -- 79
2019-12-15 09:00:00 11.3 4 Oeste 18 Sudoeste 0 -- -- 85
2019-12-15 08:00:00 8 0 Calma 10 Norte 0 -- -- 92
2019-12-15 07:00:00 7.1 0 Calma 5 Norte 0 -- -- 91
2019-12-15 06:00:00 7.5 0 Calma 4 Nordeste 0 -- -- 91
2019-12-15 05:00:00 8.3 0 Calma 5 Oeste 0 -- -- 91
2019-12-15 04:00:00 9.9 3 Oeste 7 Oeste 0 -- -- 92
2019-12-15 03:00:00 10.8 0 Calma 7 Oeste 0 -- -- 92
2019-12-15 02:00:00 10.8 2 Sudoeste 7 Oeste 0 -- -- 91
2019-12-15 01:00:00 10.9 2 Sudoeste 5 Sudoeste 0 -- -- 87
2019-12-15 00:00:00 12.8 6 Oeste 21 Oeste 0 -- -- 82
2019-12-14 23:00:00 13.2 15 Oeste 24 Oeste 0 -- -- 81
2019-12-14 22:00:00 13.5 11 Oeste 25 Oeste 0 -- -- 81
2019-12-14 21:00:00 12.7 0 Calma 11 Sudoeste 0 -- -- 85
2019-12-14 20:00:00 12.6 2 Sudeste 8 Oeste 0 -- -- 86
2019-12-14 19:00:00 13.9 3 Sudoeste 11 Sudeste 0 -- -- 81
2019-12-14 18:00:00 14.3 6 Oeste 23 Sudoeste 0 -- -- 79
2019-12-14 17:00:00 14.9 13 Oeste 23 Sudoeste 0 -- -- 75
2019-12-14 16:00:00 15.6 16 Oeste 31 Sudoeste 0 -- -- 71
2019-12-14 15:00:00 16.7 16 Oeste 28 Oeste 0 -- -- 66
2019-12-14 14:00:00 18.3 13 Oeste 22 Sudoeste 0 -- -- 57
2019-12-14 13:00:00 20.5 8 Noroeste 26 Noroeste 0 -- -- 43
2019-12-14 12:00:00 19.3 9 Oeste 24 Oeste 0 -- -- 53
2019-12-14 11:00:00 17.7 15 Oeste 23 Oeste 0 -- -- 59
2019-12-14 10:00:00 16.9 10 Oeste 29 Oeste 0 -- -- 63
2019-12-14 09:00:00 14.5 15 Oeste 25 Sudoeste 0 -- -- 65
2019-12-14 08:00:00 13.5 5 Oeste 18 Noroeste 0 -- -- 69
2019-12-14 07:00:00 13.8 8 Oeste 15 Sudoeste 0 -- -- 71
2019-12-14 06:00:00 14.2 3 Sur 26 Sudoeste 0 -- -- 65
2019-12-14 05:00:00 15 12 Oeste 26 Oeste 0 -- -- 62
2019-12-14 04:00:00 15.9 11 Oeste 34 Oeste 0 -- -- 60
2019-12-14 03:00:00 16.7 8 Oeste 21 Noroeste 0 -- -- 57
2019-12-14 02:00:00 17.1 10 Oeste 33 Oeste 0 -- -- 56
2019-12-14 01:00:00 17.7 21 Noroeste 40 Oeste 0 -- -- 54
2019-12-14 00:00:00 16.2 25 Oeste 52 Oeste 0 -- -- 65
2019-12-13 23:00:00 16.3 29 Oeste 50 Oeste 0 -- -- 66
2019-12-13 22:00:00 16.2 21 Oeste 37 Sudoeste 0 -- -- 66
2019-12-13 21:00:00 16.2 14 Sur 32 Sudoeste 0 -- -- 65
2019-12-13 20:00:00 -- 10 Sudeste -- -- -- -- -- --
2019-12-13 19:00:00 -- -- -- -- -- -- -- -- --
2019-12-13 18:00:00 17.8 12 Oeste 38 Oeste 0 -- -- 50
2019-12-13 17:00:00 17.7 19 Oeste 41 Oeste 0 -- -- 51
2019-12-13 16:00:00 18.1 14 Oeste 36 Oeste 0 -- -- 51
2019-12-13 15:00:00 17.1 16 Oeste 48 Sudoeste 0 -- -- 61
2019-12-13 14:00:00 17.1 30 Oeste 49 Oeste 0 -- -- 61
2019-12-13 13:00:00 17.3 23 Oeste 55 Oeste 0 -- -- 62
2019-12-13 12:00:00 16.7 29 Oeste 50 Oeste 0 -- -- 66
2019-12-13 11:00:00 16.7 29 Oeste 59 Oeste 0 -- -- 67
2019-12-13 10:00:00 15.9 32 Oeste 59 Oeste 0 -- -- 69
2019-12-13 09:00:00 15.4 32 Oeste 58 Oeste 0 -- -- 72
2019-12-13 08:00:00 14.7 32 Oeste 57 Oeste 0 -- -- 73
2019-12-13 07:00:00 14.5 27 Oeste 55 Oeste 0 -- -- 73
2019-12-13 06:00:00 14.4 33 Oeste 55 Oeste 0 -- -- 73
2019-12-13 05:00:00 14.2 31 Oeste 53 Oeste 0 -- -- 72
2019-12-13 04:00:00 14.1 29 Oeste 48 Oeste 0 -- -- 70
2019-12-13 03:00:00 14 29 Oeste 58 Oeste 0 -- -- 69
2019-12-13 02:00:00 13.9 27 Oeste 51 Oeste 0 -- -- 68
2019-12-13 01:00:00 13.4 33 Oeste 53 Oeste 0 -- -- 68
2019-12-13 00:00:00 12.6 26 Oeste 50 Oeste 0 -- -- 68
2019-12-12 23:00:00 12.5 25 Oeste 40 Oeste 0 -- -- 68
2019-12-12 22:00:00 12.6 18 Oeste 33 Oeste 0 -- -- 64
2019-12-12 21:00:00 12.5 17 Oeste 31 Oeste 0 -- -- 69
2019-12-12 20:00:00 12.2 17 Oeste 28 Oeste 0 -- -- 70
2019-12-12 19:00:00 11.9 16 Oeste 25 Oeste 0 -- -- 72
2019-12-12 18:00:00 11.8 16 Oeste 31 Oeste 0 -- -- 72
2019-12-12 17:00:00 12.2 17 Oeste 33 Oeste 0 -- -- 68
2019-12-12 16:00:00 12.8 18 Oeste 28 Oeste 0 -- -- 65
2019-12-12 15:00:00 13.9 12 Oeste 28 Sudoeste 0 -- -- 59
2019-12-12 14:00:00 14.5 19 Oeste 33 Sudoeste 0 -- -- 55
2019-12-12 13:00:00 14.7 18 Oeste 37 Oeste 0 -- -- 50
2019-12-12 12:00:00 15.2 11 Noroeste 32 Noroeste 0 -- -- 45
2019-12-12 11:00:00 13.7 13 Noroeste 28 Noroeste 0 -- -- 48
2019-12-12 10:00:00 12.4 9 Oeste 18 Noroeste 0 -- -- 53
2019-12-12 09:00:00 11.2 8 Noroeste 19 Oeste 0 -- -- 53
2019-12-12 08:00:00 11.2 8 Noroeste 31 Oeste 0 -- -- 54
2019-12-12 07:00:00 11.1 19 Noroeste 32 Noroeste 0 -- -- 54
2019-12-12 06:00:00 11.2 13 Noroeste 35 Noroeste 0 -- -- 53
2019-12-12 05:00:00 11.4 13 Noroeste 30 Noroeste 0 -- -- 53
2019-12-12 04:00:00 10.7 9 Oeste 28 Oeste 0 -- -- 59
2019-12-12 03:00:00 9.9 11 Noroeste 24 Noroeste 0 -- -- 61
2019-12-12 02:00:00 9.9 7 Sudoeste 18 Oeste 0 -- -- 65
2019-12-12 01:00:00 10.1 5 Oeste 11 Sudoeste 0 -- -- 76
2019-12-12 00:00:00 10.7 6 Oeste 12 Sudoeste 0 -- -- 76
2019-12-11 23:00:00 10.9 4 Noroeste 15 Nordeste 0 -- -- 74
2019-12-11 22:00:00 11 3 Nordeste 22 Norte 0 -- -- 72
2019-12-11 21:00:00 11.9 14 Norte 32 Norte 0 -- -- 67
2019-12-11 20:00:00 12 12 Norte 25 Noroeste 0 -- -- 62
2019-12-11 19:00:00 13.2 18 Norte 32 Noroeste 0 -- -- 58
2019-12-11 18:00:00 13.4 9 Noroeste 22 Oeste 0 -- -- 59
2019-12-11 17:00:00 14 12 Oeste 26 Sudoeste 0 -- -- 62
2019-12-11 16:00:00 15 13 Oeste 23 Sudoeste 0 -- -- 58
2019-12-11 15:00:00 14.8 13 Oeste 22 Oeste 0 -- -- 66
2019-12-11 14:00:00 15.7 13 Oeste 22 Sudoeste 0 -- -- 65
2019-12-11 13:00:00 16.2 11 Oeste 24 Oeste 0 -- -- 66
2019-12-11 12:00:00 14.3 17 Oeste 30 Oeste 0 -- -- 76
2019-12-11 11:00:00 14.2 9 Oeste 19 Oeste 0 -- -- 76
2019-12-11 10:00:00 14 0 Calma 9 Sur 0 -- -- 75
2019-12-11 09:00:00 7.8 2 Sur 8 Oeste 0 -- -- 91
2019-12-11 08:00:00 5.2 2 Norte 6 Norte 0 -- -- 92
2019-12-11 07:00:00 4.9 0 Calma 6 Norte 0 -- -- 92
2019-12-11 06:00:00 3.9 0 Calma 5 Oeste 0 -- -- 92
2019-12-11 05:00:00 3.2 0 Calma 3 Oeste 0 -- -- 92
2019-12-11 04:00:00 3.3 0 Calma 4 Oeste 0 -- -- 91
2019-12-11 03:00:00 3.4 0 Calma 3 Norte 0 -- -- 90
2019-12-11 02:00:00 4 0 Calma 4 Norte 0 -- -- 90
2019-12-11 01:00:00 4.2 0 Calma 4 Oeste 0 -- -- 89
2019-12-11 00:00:00 5.2 0 Calma 6 Norte 0 -- -- 87
2019-12-10 23:00:00 6.3 2 Nordeste 9 Sur 0 -- -- 85
2019-12-10 22:00:00 7.8 4 Norte 11 Noroeste 0 -- -- 83
2019-12-10 21:00:00 7.9 5 Noroeste 9 Noroeste 0 -- -- 83
2019-12-10 20:00:00 6.7 3 Oeste 6 Oeste 0 -- -- 83
2019-12-10 19:00:00 9.4 0 Calma 5 Oeste 0 -- -- 77
2019-12-10 18:00:00 11.2 2 Oeste 17 Oeste 0 -- -- 72
2019-12-10 17:00:00 12.5 8 Oeste 23 Oeste 0 -- -- 65
2019-12-10 16:00:00 14.2 5 Sur 12 Sudeste 0 -- -- 37
2019-12-10 15:00:00 14.9 5 Norte 17 Norte 0 -- -- 35
2019-12-10 14:00:00 15.5 10 Norte 20 Norte 0 -- -- 36
2019-12-10 13:00:00 15.7 8 Norte 23 Norte 0 -- -- 40
2019-12-10 12:00:00 14.9 7 Nordeste 26 Norte 0 -- -- 42
2019-12-10 11:00:00 13.9 14 Norte 21 Norte 0 -- -- 53
2019-12-10 10:00:00 12.7 0 Calma 6 Norte 0 -- -- 68
2019-12-10 09:00:00 8.1 0 Calma 9 Oeste 0 -- -- 79
2019-12-10 08:00:00 7.1 0 Calma 8 Norte 0 -- -- 79
2019-12-10 07:00:00 6.2 4 Oeste 11 Noroeste 0 -- -- 83
2019-12-10 06:00:00 7.6 2 Noroeste 8 Norte 0 -- -- 76
2019-12-10 05:00:00 8.1 3 Nordeste 11 Noroeste 0 -- -- 76
2019-12-10 04:00:00 8.6 7 Norte 12 Noroeste 0 -- -- 72
2019-12-10 03:00:00 8.3 5 Norte 16 Norte 0 -- -- 74
2019-12-10 02:00:00 8.7 5 Norte 10 Noroeste 0 -- -- 74
2019-12-10 01:00:00 9.4 2 Norte 8 Noroeste 0 -- -- 67
2019-12-10 00:00:00 11.5 5 Noroeste 22 Noroeste 0 -- -- 58
2019-12-09 23:00:00 12 14 Noroeste 30 Noroeste 0 -- -- 56
2019-12-09 22:00:00 12.4 13 Noroeste 29 Noroeste 0 -- -- 56
2019-12-09 21:00:00 13.3 18 Noroeste 48 Noroeste 0 -- -- 52
2019-12-09 20:00:00 13.4 23 Noroeste 50 Noroeste 0 -- -- 50
2019-12-09 19:00:00 13.5 24 Noroeste 47 Noroeste 0 -- -- 50
2019-12-09 18:00:00 13.6 25 Noroeste 49 Noroeste 0 -- -- 49
2019-12-09 17:00:00 13.8 15 Noroeste 35 Noroeste 0 -- -- 48
2019-12-09 16:00:00 14.6 22 Noroeste 42 Noroeste 0 -- -- 45
2019-12-09 15:00:00 -- -- -- -- -- -- -- -- --
2019-12-09 14:00:00 -- -- -- -- -- -- -- -- --
2019-12-09 13:00:00 -- -- -- -- -- -- -- -- --
2019-12-09 12:00:00 -- -- -- -- -- -- -- -- --
2019-12-09 11:00:00 -- -- -- -- -- -- -- -- --
2019-12-09 10:00:00 -- -- -- -- -- -- -- -- --
2019-12-09 09:00:00 -- -- -- -- -- -- -- -- --
2019-12-09 08:00:00 -- -- -- -- -- -- -- -- --
2019-12-09 07:00:00 -- -- -- -- -- -- -- -- --
2019-12-09 06:00:00 -- -- -- -- -- -- -- -- --
2019-12-09 05:00:00 -- -- -- -- -- -- -- -- --
2019-12-09 04:00:00 -- -- -- -- -- -- -- -- --
2019-12-09 03:00:00 -- -- -- -- -- -- -- -- --
2019-12-09 02:00:00 -- -- -- -- -- -- -- -- --
2019-12-09 01:00:00 -- -- -- -- -- -- -- -- --
2019-12-09 00:00:00 -- -- -- -- -- -- -- -- --
2019-12-08 23:00:00 -- -- -- -- -- -- -- -- --
2019-12-08 22:00:00 -- -- -- -- -- -- -- -- --
2019-12-08 21:00:00 -- -- -- -- -- -- -- -- --
2019-12-08 20:00:00 -- -- -- -- -- -- -- -- --
2019-12-08 19:00:00 -- -- -- -- -- -- -- -- --
2019-12-08 18:00:00 -- -- -- -- -- -- -- -- --
2019-12-08 17:00:00 -- -- -- -- -- -- -- -- --
2019-12-08 16:00:00 -- -- -- -- -- -- -- -- --
2019-12-08 15:00:00 -- -- -- -- -- -- -- -- --
2019-12-08 14:00:00 -- -- -- -- -- -- -- -- --
2019-12-08 13:00:00 -- -- -- -- -- -- -- -- --
2019-12-08 12:00:00 -- -- -- -- -- -- -- -- --
2019-12-08 11:00:00 -- -- -- -- -- -- -- -- --
2019-12-08 10:00:00 -- -- -- -- -- -- -- -- --
2019-12-08 09:00:00 -- -- -- -- -- -- -- -- --
2019-12-08 08:00:00 -- -- -- -- -- -- -- -- --
2019-12-08 07:00:00 -- -- -- -- -- -- -- -- --
2019-12-08 06:00:00 -- -- -- -- -- -- -- -- --
2019-12-08 05:00:00 -- -- -- -- -- -- -- -- --
2019-12-08 04:00:00 -- -- -- -- -- -- -- -- --
2019-12-08 03:00:00 -- -- -- -- -- -- -- -- --
2019-12-08 02:00:00 -- -- -- -- -- -- -- -- --
2019-12-08 01:00:00 -- -- -- -- -- -- -- -- --
2019-12-08 00:00:00 -- -- -- -- -- -- -- -- --
2019-12-07 23:00:00 -- -- -- -- -- -- -- -- --
2019-12-07 22:00:00 -- -- -- -- -- -- -- -- --
2019-12-07 21:00:00 -- -- -- -- -- -- -- -- --
2019-12-07 20:00:00 -- -- -- -- -- -- -- -- --
2019-12-07 19:00:00 -- -- -- -- -- -- -- -- --
2019-12-07 18:00:00 -- -- -- -- -- -- -- -- --
2019-12-07 17:00:00 -- -- -- -- -- -- -- -- --
2019-12-07 16:00:00 -- -- -- -- -- -- -- -- --
2019-12-07 15:00:00 -- -- -- -- -- -- -- -- --
2019-12-07 14:00:00 -- -- -- -- -- -- -- -- --
2019-12-07 13:00:00 -- -- -- -- -- -- -- -- --
2019-12-07 12:00:00 -- -- -- -- -- -- -- -- --
2019-12-07 11:00:00 -- -- -- -- -- -- -- -- --
2019-12-07 10:00:00 -- -- -- -- -- -- -- -- --
2019-12-07 09:00:00 -- -- -- -- -- -- -- -- --
2019-12-07 08:00:00 -- -- -- -- -- -- -- -- --
2019-12-07 07:00:00 -- -- -- -- -- -- -- -- --
2019-12-07 06:00:00 -- -- -- -- -- -- -- -- --
2019-12-07 05:00:00 -- -- -- -- -- -- -- -- --
2019-12-07 04:00:00 -- -- -- -- -- -- -- -- --
2019-12-07 03:00:00 -- -- -- -- -- -- -- -- --
2019-12-07 02:00:00 -- -- -- -- -- -- -- -- --
2019-12-07 01:00:00 -- -- -- -- -- -- -- -- --
2019-12-07 00:00:00 -- -- -- -- -- -- -- -- --
2019-12-06 23:00:00 -- -- -- -- -- -- -- -- --
2019-12-06 22:00:00 -- -- -- -- -- -- -- -- --
2019-12-06 21:00:00 -- -- -- -- -- -- -- -- --
2019-12-06 20:00:00 -- -- -- -- -- -- -- -- --
2019-12-06 19:00:00 -- -- -- -- -- -- -- -- --
2019-12-06 18:00:00 -- -- -- -- -- -- -- -- --
2019-12-06 17:00:00 -- -- -- -- -- -- -- -- --
2019-12-06 16:00:00 -- -- -- -- -- -- -- -- --
2019-12-06 15:00:00 -- -- -- -- -- -- -- -- --
2019-12-06 14:00:00 -- -- -- -- -- -- -- -- --
2019-12-06 13:00:00 -- -- -- -- -- -- -- -- --
2019-12-06 12:00:00 -- -- -- -- -- -- -- -- --
2019-12-06 11:00:00 -- -- -- -- -- -- -- -- --
2019-12-06 10:00:00 -- -- -- -- -- -- -- -- --
2019-12-06 09:00:00 -- -- -- -- -- -- -- -- --
2019-12-06 08:00:00 -- -- -- -- -- -- -- -- --
2019-12-06 07:00:00 -- -- -- -- -- -- -- -- --
2019-12-06 06:00:00 -- -- -- -- -- -- -- -- --
2019-12-06 05:00:00 -- -- -- -- -- -- -- -- --
2019-12-06 04:00:00 -- -- -- -- -- -- -- -- --
2019-12-06 03:00:00 -- -- -- -- -- -- -- -- --
2019-12-06 02:00:00 -- -- -- -- -- -- -- -- --
2019-12-06 01:00:00 -- -- -- -- -- -- -- -- --
2019-12-06 00:00:00 -- -- -- -- -- -- -- -- --
2019-12-05 23:00:00 -- -- -- -- -- -- -- -- --
2019-12-05 22:00:00 -- -- -- -- -- -- -- -- --
2019-12-05 21:00:00 -- -- -- -- -- -- -- -- --
2019-12-05 20:00:00 -- -- -- -- -- -- -- -- --
2019-12-05 19:00:00 -- -- -- -- -- -- -- -- --
2019-12-05 18:00:00 -- -- -- -- -- -- -- -- --
2019-12-05 17:00:00 -- -- -- -- -- -- -- -- --
2019-12-05 16:00:00 -- -- -- -- -- -- -- -- --
2019-12-05 15:00:00 -- -- -- -- -- -- -- -- --
2019-12-05 14:00:00 -- -- -- -- -- -- -- -- --
2019-12-05 13:00:00 -- -- -- -- -- -- -- -- --
2019-12-05 12:00:00 -- -- -- -- -- -- -- -- --
2019-12-05 11:00:00 -- -- -- -- -- -- -- -- --
2019-12-05 10:00:00 -- -- -- -- -- -- -- -- --
2019-12-05 09:00:00 -- -- -- -- -- -- -- -- --
2019-12-05 08:00:00 -- -- -- -- -- -- -- -- --
2019-12-05 07:00:00 -- -- -- -- -- -- -- -- --
2019-12-05 06:00:00 -- -- -- -- -- -- -- -- --
2019-12-05 05:00:00 -- -- -- -- -- -- -- -- --
2019-12-05 04:00:00 -- -- -- -- -- -- -- -- --
2019-12-05 03:00:00 -- -- -- -- -- -- -- -- --
2019-12-05 02:00:00 -- -- -- -- -- -- -- -- --
2019-12-05 01:00:00 -- -- -- -- -- -- -- -- --
2019-12-05 00:00:00 -- -- -- -- -- -- -- -- --
2019-12-04 23:00:00 -- -- -- -- -- -- -- -- --
2019-12-04 22:00:00 -- -- -- -- -- -- -- -- --
2019-12-04 21:00:00 -- -- -- -- -- -- -- -- --
2019-12-04 20:00:00 -- -- -- -- -- -- -- -- --
2019-12-04 19:00:00 -- -- -- -- -- -- -- -- --
2019-12-04 18:00:00 -- -- -- -- -- -- -- -- --
2019-12-04 17:00:00 -- -- -- -- -- -- -- -- --
2019-12-04 16:00:00 -- -- -- -- -- -- -- -- --
2019-12-04 15:00:00 -- -- -- -- -- -- -- -- --
2019-12-04 14:00:00 -- -- -- -- -- -- -- -- --
2019-12-04 13:00:00 -- -- -- -- -- -- -- -- --
2019-12-04 12:00:00 -- -- -- -- -- -- -- -- --
2019-12-04 11:00:00 -- -- -- -- -- -- -- -- --
2019-12-04 10:00:00 -- -- -- -- -- -- -- -- --
2019-12-04 09:00:00 -- -- -- -- -- -- -- -- --
2019-12-04 08:00:00 -- -- -- -- -- -- -- -- --
2019-12-04 07:00:00 -- -- -- -- -- -- -- -- --
2019-12-04 06:00:00 -- -- -- -- -- -- -- -- --
2019-12-04 05:00:00 -- -- -- -- -- -- -- -- --
2019-12-04 04:00:00 15.1 25 Este 46 Este 3.2 -- -- 88
2019-12-04 03:00:00 10.3 13 Este 40 Este 5.8 -- -- 82
2019-12-04 02:00:00 15 20 Este 46 Sudeste 0.5 -- -- 86
2019-12-04 01:00:00 14.8 14 Este -- -- -- -- -- 89
2019-12-04 00:00:00 14.9 14 Este 30 Este 2 -- -- 88
2019-12-03 23:00:00 14.6 5 Nordeste 19 Norte 1.7 -- -- 87
2019-12-03 22:00:00 14.5 3 Nordeste 17 Nordeste 0.7 -- -- 83
2019-12-03 21:00:00 14.7 4 Nordeste 16 Nordeste 0 -- -- 77
2019-12-03 20:00:00 14.5 3 Nordeste 18 Nordeste 0 -- -- 76
2019-12-03 19:00:00 13.9 4 Nordeste 18 Nordeste 0 -- -- 73
2019-12-03 18:00:00 13.4 4 Nordeste 21 Este 0 -- -- 72
2019-12-03 17:00:00 13.5 4 Nordeste 21 Nordeste 0 -- -- 70
2019-12-03 16:00:00 13.7 4 Nordeste 21 Sudeste 0 -- -- 66
2019-12-03 15:00:00 14.1 5 Nordeste 21 Nordeste 0 -- -- 64
2019-12-03 14:00:00 14.5 4 Nordeste 19 Nordeste 0 -- -- 64
2019-12-03 13:00:00 13.9 4 Nordeste 30 Norte 0 -- -- 65
2019-12-03 12:00:00 13 6 Nordeste 30 Norte 0 -- -- 68
2019-12-03 11:00:00 12.4 9 Nordeste 23 Nordeste 0 -- -- 68
2019-12-03 10:00:00 11.2 6 Nordeste 26 Nordeste 0 -- -- 69
2019-12-03 09:00:00 11.2 5 Nordeste 22 Este 0 -- -- 69
2019-12-03 08:00:00 11.2 5 Nordeste 23 Nordeste 0 -- -- 69
2019-12-03 07:00:00 11.1 4 Nordeste 22 Noroeste 0 -- -- 70
2019-12-03 06:00:00 11.1 3 Nordeste 23 Nordeste 0 -- -- 72
2019-12-03 05:00:00 11 4 Nordeste 22 Norte 0 -- -- 73
2019-12-03 04:00:00 10.9 6 Nordeste 18 Nordeste 0 -- -- 73
2019-12-03 03:00:00 11.8 3 Nordeste 22 Nordeste 0 -- -- 72
2019-12-03 02:00:00 11.8 6 Nordeste 19 Este 0 -- -- 73
2019-12-03 01:00:00 12 3 Nordeste 19 Norte 0 -- -- 73
2019-12-03 00:00:00 12 3 Nordeste 21 Este 0 -- -- 72
2019-12-02 23:00:00 12.2 5 Nordeste 24 Norte 0 -- -- 72
2019-12-02 22:00:00 12.1 3 Nordeste 16 Este 0 -- -- 72
2019-12-02 21:00:00 11.9 3 Nordeste 18 Este 0 -- -- 73
2019-12-02 20:00:00 12 2 Nordeste 15 Norte 0 -- -- 73
2019-12-02 19:00:00 12 2 Nordeste 17 Nordeste 0 -- -- 73
2019-12-02 18:00:00 12.3 3 Nordeste 23 Noroeste 0 -- -- 73
2019-12-02 17:00:00 12.9 4 Nordeste 24 Nordeste 0 -- -- 73
2019-12-02 16:00:00 13.5 6 Nordeste 22 Sudeste 0 -- -- 72
2019-12-02 15:00:00 13.8 5 Nordeste 21 Este 0 -- -- 71
2019-12-02 14:00:00 13.9 5 Nordeste 22 Norte 0 -- -- 74
2019-12-02 13:00:00 13.9 5 Nordeste 21 Este 0 -- -- 77
2019-12-02 12:00:00 13.3 5 Nordeste 16 Nordeste 0.7 -- -- 87
2019-12-02 11:00:00 13.1 0 Calma 12 Norte 1.4 -- -- 87
2019-12-02 10:00:00 12.8 4 Nordeste 14 Nordeste 0.2 -- -- 85
2019-12-02 09:00:00 13 3 Nordeste 16 Norte 0 -- -- 88
2019-12-02 08:00:00 12.8 3 Nordeste 15 Norte 0 -- -- 90
2019-12-02 07:00:00 11.9 3 Nordeste 15 Norte 0 -- -- 87
2019-12-02 06:00:00 12.6 5 Norte 10 Norte 0 -- -- 92
2019-12-02 05:00:00 12.9 3 Norte 6 Norte 0 -- -- 91
2019-12-02 04:00:00 13.2 0 Calma 3 Norte 0 -- -- 91
2019-12-02 03:00:00 13.3 3 Noroeste 9 Este 0 -- -- 91
2019-12-02 02:00:00 13.4 3 Nordeste 10 Norte 0 -- -- 91
2019-12-02 01:00:00 13.3 6 Norte 10 Noroeste 0.1 -- -- 91
2019-12-02 00:00:00 12.7 2 Norte 5 Norte 0 -- -- 89
2019-12-01 23:00:00 12.8 0 Calma 4 Noroeste 0 -- -- 89
2019-12-01 22:00:00 13.4 0 Calma 8 Noroeste 0 -- -- 88
2019-12-01 21:00:00 13.1 0 Calma 5 Norte 0 -- -- 88
2019-12-01 20:00:00 12.9 4 Norte 5 Norte 0 -- -- 87
2019-12-01 19:00:00 13.6 0 Calma 3 Norte 0 -- -- 84
2019-12-01 18:00:00 14.8 0 Calma 9 Sudoeste 0 -- -- 80
2019-12-01 17:00:00 15.9 5 Sudoeste 18 Sudoeste 0 -- -- 73
2019-12-01 16:00:00 16.9 11 Oeste 22 Sudoeste 0 -- -- 67
2019-12-01 15:00:00 17.6 13 Oeste 23 Oeste 0 -- -- 63
2019-12-01 14:00:00 17.4 13 Oeste 28 Oeste 0 -- -- 62
2019-12-01 13:00:00 18.6 10 Oeste 22 Oeste 0 -- -- 63
2019-12-01 12:00:00 18.3 13 Sudoeste 24 Sudoeste 0 -- -- 66
2019-12-01 11:00:00 16.6 9 Oeste 18 Sudoeste 0 -- -- 75
2019-12-01 10:00:00 15.9 9 Oeste 19 Oeste 0 -- -- 81
2019-12-01 09:00:00 15.2 7 Sudoeste 14 Sudoeste 0 -- -- 87
2019-12-01 08:00:00 14.1 8 Sudoeste 14 Sudoeste 0 -- -- 88
2019-12-01 07:00:00 14.5 5 Sudoeste 15 Sudoeste 0 -- -- 87
2019-12-01 06:00:00 14.2 5 Sudoeste 11 Sudoeste 0 -- -- 88
2019-12-01 05:00:00 14.3 2 Norte 10 Sudoeste 0 -- -- 89
2019-12-01 04:00:00 14.6 4 Sudoeste 16 Sudoeste 0 -- -- 89
2019-12-01 03:00:00 14.7 6 Sudoeste 18 Sur 0 -- -- 89
2019-12-01 02:00:00 14.5 7 Sudoeste 21 Sudoeste 0 -- -- 89
2019-12-01 01:00:00 14.7 10 Sudoeste 24 Sur 0 -- -- 89
2019-12-01 00:00:00 14.5 9 Sudoeste 19 Sudoeste 0 -- -- 90
2019-11-30 23:00:00 14.8 6 Sudoeste 16 Sudoeste 0 -- -- 91
2019-11-30 22:00:00 14.8 6 Sudoeste 19 Oeste 0 -- -- 89
2019-11-30 21:00:00 15.1 6 Sudoeste 15 Sudoeste 0 -- -- 88
2019-11-30 20:00:00 15.3 6 Sudoeste 17 Sur 0 -- -- 84
2019-11-30 19:00:00 15.4 6 Sudoeste 15 Sudoeste 0 -- -- 84
2019-11-30 18:00:00 15.4 8 Sudoeste 14 Sudoeste 0 -- -- 84
2019-11-30 17:00:00 15.8 5 Sur 19 Sudoeste 0 -- -- 81
2019-11-30 16:00:00 16.8 6 Sudoeste 22 Sudoeste 0 -- -- 75
2019-11-30 15:00:00 17.5 10 Sudoeste 19 Sudoeste 0 -- -- 69
2019-11-30 14:00:00 18.1 9 Sur 21 Sudoeste 0 -- -- 66
2019-11-30 13:00:00 17.4 10 Sudoeste 19 Sudoeste 0 -- -- 71
2019-11-30 12:00:00 16.2 7 Sudoeste 17 Sur 0 -- -- 78
2019-11-30 11:00:00 15.5 9 Sudoeste 17 Sudoeste 0 -- -- 83
2019-11-30 10:00:00 14.7 4 Sur 10 Sur 0 -- -- 92
2019-11-30 09:00:00 12.2 0 Calma 4 Norte 0 -- -- 93
2019-11-30 08:00:00 10.4 3 Norte 6 Norte 0 -- -- 93
2019-11-30 07:00:00 10 0 Calma 6 Norte 0 -- -- 94
2019-11-30 06:00:00 11.6 0 Calma 8 Noroeste 0 -- -- 95
2019-11-30 05:00:00 10.7 0 Calma 4 Oeste 0 -- -- 93
2019-11-30 04:00:00 10.1 0 Calma 4 Noroeste 0 -- -- 92
2019-11-30 03:00:00 11 3 Noroeste 6 Noroeste 0 -- -- 92
2019-11-30 02:00:00 10.6 0 Calma 4 Norte 0 -- -- 91
2019-11-30 01:00:00 11.1 3 Noroeste 7 Noroeste 0 -- -- 91
2019-11-30 00:00:00 10.3 0 Calma 3 Noroeste 0 -- -- 91
2019-11-29 23:00:00 10.6 3 Norte 6 Norte 0 -- -- 90
2019-11-29 22:00:00 11.1 0 Calma 5 Norte 0 -- -- 90
2019-11-29 21:00:00 11.8 0 Calma 3 Oeste 0 -- -- 88
2019-11-29 20:00:00 12.3 2 Noroeste 6 Noroeste 0 -- -- 87
2019-11-29 19:00:00 13.1 0 Calma 3 Noroeste 0 -- -- 84
2019-11-29 18:00:00 14.6 0 Calma 5 Este 0 -- -- 80
2019-11-29 17:00:00 17.1 0 Calma 9 Sudoeste 0 -- -- 72
2019-11-29 16:00:00 17.8 5 Oeste 13 Oeste 0 -- -- 71
2019-11-29 15:00:00 18.5 10 Sudoeste 17 Sudoeste 0 -- -- 66
2019-11-29 14:00:00 20.6 5 Sudoeste 13 Sudoeste 0 -- -- 58
2019-11-29 13:00:00 20.4 3 Nordeste 16 Oeste 0 -- -- 59
2019-11-29 12:00:00 18.8 8 Oeste 24 Oeste 0 -- -- 66
2019-11-29 11:00:00 15.6 10 Oeste 18 Oeste 0 -- -- 79
2019-11-29 10:00:00 13.5 2 Sudeste 8 Este 0 -- -- 87
2019-11-29 09:00:00 12.6 5 Sudeste 9 Sudeste 0 -- -- 87
2019-11-29 08:00:00 11.8 2 Norte 7 Nordeste 0 -- -- 88
2019-11-29 07:00:00 12 2 Este 8 Este 0 -- -- 87
2019-11-29 06:00:00 13.3 0 Calma 9 Sur 0 -- -- 84
2019-11-29 05:00:00 13.8 8 Sudoeste 23 Sudoeste 0 -- -- 81
2019-11-29 04:00:00 13.8 13 Oeste 24 Oeste 0 -- -- 78
2019-11-29 03:00:00 14.2 11 Oeste 33 Oeste 0 -- -- 74
2019-11-29 02:00:00 13.8 14 Oeste 34 Sudoeste 0 -- -- 77
2019-11-29 01:00:00 13.8 15 Oeste 26 Oeste 0 -- -- 81
2019-11-29 00:00:00 13.3 9 Oeste 22 Oeste 0 -- -- 86
2019-11-28 23:00:00 13.1 8 Oeste 17 Sudoeste 0 -- -- 85
2019-11-28 22:00:00 13.5 8 Sudoeste 17 Oeste 0 -- -- 84
2019-11-28 21:00:00 13.3 7 Sudoeste 13 Sudoeste 0 -- -- 83
2019-11-28 20:00:00 13.5 3 Noroeste 21 Sudoeste 0 -- -- 80
2019-11-28 19:00:00 14.1 10 Oeste 19 Oeste 0 -- -- 78
2019-11-28 18:00:00 14.5 2 Sudoeste 27 Oeste 0 -- -- 77
2019-11-28 17:00:00 14.7 15 Oeste 28 Oeste 0 -- -- 75
2019-11-28 16:00:00 16 21 Oeste 37 Oeste 0 -- -- 68
2019-11-28 15:00:00 16.3 19 Oeste 32 Sudoeste 0 -- -- 68
2019-11-28 14:00:00 18.1 16 Oeste 25 Oeste 0 -- -- 62
2019-11-28 13:00:00 18.3 14 Oeste 25 Oeste 0 -- -- 59
2019-11-28 12:00:00 18.6 11 Oeste 22 Sudoeste 0 -- -- 57
2019-11-28 11:00:00 17.5 12 Oeste 20 Sudoeste 0 -- -- 64
2019-11-28 10:00:00 16.4 9 Oeste 17 Oeste 0 -- -- 67
2019-11-28 09:00:00 14.9 10 Oeste 17 Oeste 0 -- -- 74
2019-11-28 08:00:00 13.3 7 Oeste 19 Oeste 0 -- -- 78
2019-11-28 07:00:00 13.2 11 Oeste 19 Oeste 0 -- -- 77
2019-11-28 06:00:00 12.6 9 Oeste 14 Oeste 0 -- -- 73
2019-11-28 05:00:00 10.2 3 Noroeste 8 Norte 0 -- -- 83
2019-11-28 04:00:00 11.9 5 Noroeste 9 Noroeste 0 -- -- 84
2019-11-28 03:00:00 10.7 0 Calma 5 Oeste 0 -- -- 84
2019-11-28 02:00:00 11.6 4 Oeste 11 Oeste 0 -- -- 80
2019-11-28 01:00:00 13.8 9 Oeste 20 Oeste 0 -- -- 73
2019-11-28 00:00:00 14.4 14 Oeste 23 Oeste 0 -- -- 70
2019-11-27 23:00:00 14.6 10 Oeste 21 Sudoeste 0 -- -- 75
2019-11-27 22:00:00 14.4 11 Oeste 17 Oeste 0 -- -- 79
2019-11-27 21:00:00 14.1 6 Sudoeste 19 Sudoeste 0 -- -- 78
2019-11-27 20:00:00 15.2 11 Oeste 23 Noroeste 0 -- -- 68
2019-11-27 19:00:00 14.7 7 Oeste 12 Oeste 0 -- -- 77
2019-11-27 18:00:00 15.5 9 Oeste 14 Oeste 0 -- -- 73
2019-11-27 17:00:00 16.7 10 Oeste 23 Sudoeste 0 -- -- 66
2019-11-27 16:00:00 18 12 Oeste 22 Oeste 0 -- -- 61
2019-11-27 15:00:00 18.9 6 Oeste 23 Oeste 0 -- -- 58
2019-11-27 14:00:00 19 14 Oeste 32 Oeste 0 -- -- 58
2019-11-27 06:00:00 15.4 15 Sudoeste 34 Oeste 0 -- -- 89
2019-11-27 05:00:00 15.1 12 Sudoeste 24 Sudoeste 0 -- -- 88
2019-11-27 04:00:00 15.1 12 Sudoeste 26 Sudoeste 0 -- -- 88
2019-11-27 03:00:00 15.2 15 Oeste 37 Oeste 0 -- -- 86
2019-11-27 02:00:00 15.1 18 Oeste 35 Oeste 0 -- -- 89
2019-11-27 01:00:00 15.2 16 Oeste 31 Oeste 0 -- -- 89
2019-11-27 00:00:00 15.1 13 Sudoeste 31 Sudoeste 0 -- -- 90
2019-11-26 23:00:00 15.1 5 Sudoeste 25 Sudoeste 0 -- -- 89
2019-11-26 22:00:00 14.6 9 Oeste 17 Sudoeste 0 -- -- 90
2019-11-26 21:00:00 14.4 7 Sudoeste 18 Sudoeste 0 -- -- 87
2019-11-26 20:00:00 14.6 8 Oeste 18 Oeste 0 -- -- 87
2019-11-26 19:00:00 14.9 9 Sudoeste 18 Sudoeste 0 -- -- 85
2019-11-26 18:00:00 15.2 8 Sudoeste 22 Sur 0 -- -- 83
2019-11-26 17:00:00 16.3 8 Sudoeste 26 Oeste 0 -- -- 69
2019-11-26 16:00:00 16.8 17 Oeste 30 Oeste 0 -- -- 60
2019-11-26 15:00:00 17.9 15 Oeste 24 Oeste 0 -- -- 62
2019-11-26 14:00:00 18.2 15 Oeste 26 Oeste 0 -- -- 63
2019-11-26 13:00:00 18.4 10 Sudoeste 23 Oeste 0 -- -- 64
2019-11-26 12:00:00 19.1 7 Sudoeste 17 Oeste 0 -- -- 69
2019-11-26 11:00:00 16.6 7 Sur 17 Sur 0 -- -- 82
2019-11-26 10:00:00 16 5 Sur 10 Sur 0 -- -- 85
2019-11-26 09:00:00 12.4 0 Calma 8 Noroeste 0 -- -- 92
2019-11-26 08:00:00 8.7 0 Calma 4 Norte 0 -- -- 92
2019-11-26 07:00:00 8.7 0 Calma 4 Sudoeste 0 -- -- 90
2019-11-26 06:00:00 9.2 0 Calma 4 Norte 0 -- -- 90
2019-11-26 05:00:00 8.1 0 Calma 4 Norte 0 -- -- 88
2019-11-26 04:00:00 8.3 0 Calma 4 Sudoeste 0 -- -- 88
2019-11-26 03:00:00 8.4 0 Calma 4 Oeste 0 -- -- 88
2019-11-26 02:00:00 8.5 0 Calma 4 Sudoeste 0 -- -- 87
2019-11-26 01:00:00 9.2 2 Noroeste 5 Norte 0 -- -- 86
2019-11-26 00:00:00 9.2 0 Calma 4 Norte 0 -- -- 85
2019-11-25 23:00:00 9.3 0 Calma 4 Sudoeste 0 -- -- 85
2019-11-25 22:00:00 10.3 0 Calma 6 Norte 0 -- -- 81
2019-11-25 21:00:00 11 0 Calma 6 Norte 0 -- -- 79
2019-11-25 20:00:00 10.7 2 Noroeste 5 Noroeste 0 -- -- 78
2019-11-25 19:00:00 12.2 0 Calma 4 Oeste 0 -- -- 73
2019-11-25 18:00:00 14.6 3 Norte 8 Norte 0 -- -- 63
2019-11-25 17:00:00 16.6 4 Noroeste 15 Noroeste 0 -- -- 54
2019-11-25 16:00:00 18.2 7 Noroeste 19 Noroeste 0 -- -- 50
2019-11-25 15:00:00 18.8 10 Noroeste 25 Oeste 0 -- -- 51
2019-11-25 14:00:00 18.3 10 Oeste 26 Oeste 0 -- -- 57
2019-11-25 13:00:00 17.8 12 Oeste 24 Oeste 0 -- -- 59
2019-11-25 12:00:00 16.6 10 Oeste 23 Oeste 0 -- -- 63
2019-11-25 11:00:00 16.7 10 Sudoeste 21 Oeste 0 -- -- 62
2019-11-25 10:00:00 16.1 0 Calma 5 Nordeste 0 -- -- 56
2019-11-25 09:00:00 11.8 0 Calma 6 Oeste 0 -- -- 78
2019-11-25 08:00:00 9.1 3 Oeste 7 Oeste 0 -- -- 85
2019-11-25 07:00:00 8.3 0 Calma 8 Sudoeste 0 -- -- 82
2019-11-25 06:00:00 8.8 3 Oeste 7 Oeste 0 -- -- 78
2019-11-25 05:00:00 9.4 5 Oeste 11 Noroeste 0 -- -- 73
2019-11-25 04:00:00 11.9 9 Oeste 19 Oeste 0 -- -- 65
2019-11-25 03:00:00 10.7 2 Oeste 10 Oeste 0 -- -- 65
2019-11-25 02:00:00 10.8 4 Noroeste 21 Oeste 0 -- -- 62
2019-11-25 01:00:00 12.4 11 Oeste 28 Oeste 0 -- -- 57
2019-11-25 00:00:00 12.4 13 Noroeste 27 Oeste 0 -- -- 60
2019-11-24 23:00:00 11.9 8 Oeste 19 Oeste 0 -- -- 65
2019-11-24 22:00:00 11.9 8 Oeste 26 Noroeste 0 -- -- 65
2019-11-24 21:00:00 12.2 9 Noroeste 19 Oeste 0 -- -- 65
2019-11-24 20:00:00 11 7 Oeste 15 Oeste 0 -- -- 67
2019-11-24 19:00:00 12 9 Oeste 20 Oeste 0 -- -- 64
2019-11-24 18:00:00 11.7 6 Oeste 14 Oeste 0 -- -- 64
2019-11-24 17:00:00 13.1 7 Noroeste 25 Noroeste 0 -- -- 58
2019-11-24 16:00:00 14.1 10 Noroeste 28 Noroeste 0 -- -- 54
2019-11-24 15:00:00 14.7 13 Noroeste 30 Noroeste 0 -- -- 52
2019-11-24 14:00:00 15.2 13 Noroeste 31 Oeste 0 -- -- 51
2019-11-24 13:00:00 15.1 15 Noroeste 31 Oeste 0 -- -- 53
2019-11-24 12:00:00 15.1 13 Noroeste 26 Noroeste 0 -- -- 54
2019-11-24 11:00:00 15 11 Noroeste 32 Norte 0 -- -- 54
2019-11-24 10:00:00 14 10 Noroeste 26 Oeste 0 -- -- 55
2019-11-24 09:00:00 12.9 10 Noroeste 20 Oeste 0 -- -- 58
2019-11-24 08:00:00 11.2 8 Noroeste 25 Oeste 0 -- -- 62
2019-11-24 07:00:00 11.5 10 Noroeste 20 Noroeste 0 -- -- 63
2019-11-24 06:00:00 11.5 5 Noroeste 19 Norte 0 -- -- 61
2019-11-24 05:00:00 11.4 6 Oeste 17 Norte 0 -- -- 61
2019-11-24 04:00:00 12.1 9 Oeste 27 Oeste 0 -- -- 60
2019-11-24 03:00:00 12.3 11 Noroeste 25 Noroeste 0 -- -- 58
2019-11-24 02:00:00 12.4 8 Noroeste 33 Noroeste 0.1 -- -- 58
2019-11-24 01:00:00 12.8 17 Noroeste 37 Noroeste 0 -- -- 54
2019-11-24 00:00:00 12.5 6 Oeste 27 Noroeste 0 -- -- 55
2019-11-23 23:00:00 12.8 21 Noroeste 46 Noroeste 0 -- -- 50
2019-11-23 22:00:00 13.1 25 Noroeste 42 Noroeste 0 -- -- 51
2019-11-23 21:00:00 13.4 22 Noroeste 43 Oeste 0 -- -- 49
2019-11-23 20:00:00 13.2 11 Oeste 50 Oeste 0 -- -- 52
2019-11-23 19:00:00 13.2 17 Noroeste 46 Noroeste 0 -- -- 51
2019-11-23 18:00:00 12.9 16 Noroeste 32 Oeste 0 -- -- 57
2019-11-23 17:00:00 12 13 Noroeste 33 Noroeste 0 -- -- 66
2019-11-23 16:00:00 13 10 Oeste 30 Oeste 0 -- -- 68
2019-11-23 15:00:00 13 12 Oeste 25 Sudoeste 0 -- -- 79
2019-11-23 14:00:00 11.7 8 Noroeste 33 Noroeste 1.3 -- -- 80
2019-11-23 13:00:00 10.9 23 Noroeste 49 Noroeste 3.4 -- -- 80
2019-11-23 12:00:00 15 20 Oeste 51 Oeste 0 -- -- 61
2019-11-23 11:00:00 14.8 31 Oeste 60 Oeste 0 -- -- 59
2019-11-23 10:00:00 14.8 25 Oeste 45 Oeste 0 -- -- 61
2019-11-23 09:00:00 14.1 15 Oeste 26 Oeste 0 -- -- 66
2019-11-23 08:00:00 13.8 8 Oeste 23 Sudoeste 0 -- -- 84
2019-11-23 07:00:00 13.8 12 Oeste 28 Oeste 0 -- -- 82
2019-11-23 06:00:00 14 16 Oeste 32 Oeste 0 -- -- 78
2019-11-23 05:00:00 14.8 18 Oeste 39 Sudoeste 0 -- -- 85
2019-11-23 04:00:00 15.7 19 Sudoeste 43 Oeste 2.5 -- -- 88
2019-11-23 03:00:00 15.9 19 Sudoeste 44 Sudoeste 0 -- -- 88
2019-11-23 02:00:00 15.4 18 Sudoeste 34 Sudoeste 3.4 -- -- 92
2019-11-23 01:00:00 14.6 17 Sudoeste 46 Sudoeste 1.9 -- -- 92
2019-11-23 00:00:00 14.6 20 Sudoeste 49 Sudoeste 1.8 -- -- 92
2019-11-22 23:00:00 14.3 17 Sur 45 Sudoeste 4.8 -- -- 92
2019-11-22 22:00:00 13.9 16 Sur 41 Sur 3.2 -- -- 90
2019-11-22 21:00:00 14.6 14 Sur 32 Sur 1.9 -- -- 85
2019-11-22 20:00:00 15.1 13 Sur 30 Sur 0 -- -- 81
2019-11-22 19:00:00 15 13 Sur 34 Sudoeste 0.2 -- -- 81
2019-11-22 18:00:00 15.4 12 Sur 24 Sudoeste 0 -- -- 83
2019-11-22 17:00:00 15.4 12 Sudoeste 27 Sudoeste 0 -- -- 82
2019-11-22 16:00:00 15.8 13 Sudoeste 30 Sur 0 -- -- 82
2019-11-22 15:00:00 15.8 15 Sudoeste 34 Sudoeste 0.1 -- -- 84
2019-11-22 14:00:00 15.4 12 Sudoeste 34 Sudoeste 1.1 -- -- 87
2019-11-22 13:00:00 15.3 14 Sudoeste 29 Oeste 3.8 -- -- 87
2019-11-22 12:00:00 16.1 14 Sudoeste 26 Sudoeste 0.1 -- -- 79
2019-11-22 11:00:00 15.5 11 Sudoeste 21 Sudoeste 0.3 -- -- 85
2019-11-22 10:00:00 14.6 4 Sudoeste 14 Sudoeste 1.3 -- -- 90
2019-11-22 09:00:00 11.9 0 Calma 7 Sudeste 3.1 -- -- 95
2019-11-22 08:00:00 11.5 2 Sudeste 10 Sudeste 1.3 -- -- 95
2019-11-22 07:00:00 11.2 4 Sur 6 Sur 0 -- -- 95
2019-11-22 06:00:00 10.5 0 Calma 5 Norte 0.4 -- -- 93
2019-11-22 05:00:00 10.8 0 Calma 5 Sudoeste 1.9 -- -- 93
2019-11-22 04:00:00 10.2 0 Calma 5 Sudeste 0.1 -- -- 92
2019-11-22 03:00:00 10 0 Calma 2 Este 0 -- -- 91
2019-11-22 02:00:00 9.6 0 Calma 4 Norte 0 -- -- 90
2019-11-22 01:00:00 9.2 0 Calma 4 Oeste 0 -- -- 90
2019-11-22 00:00:00 8.9 0 Calma 3 Norte 0 -- -- 89
2019-11-21 23:00:00 9 0 Calma 3 Norte 0 -- -- 89
2019-11-21 22:00:00 9.5 2 Norte 5 Norte 0 -- -- 87
2019-11-21 21:00:00 9.6 0 Calma 4 Norte 0 -- -- 85
2019-11-21 20:00:00 10 0 Calma 4 Oeste 0 -- -- 84
2019-11-21 19:00:00 10.9 0 Calma 4 Oeste 0 -- -- 80
2019-11-21 18:00:00 12.2 0 Calma 13 Oeste 0 -- -- 73
2019-11-21 17:00:00 13.3 6 Oeste 19 Noroeste 0 -- -- 67
2019-11-21 16:00:00 13.8 12 Oeste 24 Noroeste 0 -- -- 65
2019-11-21 15:00:00 14.2 14 Oeste 34 Oeste 0 -- -- 63
2019-11-21 14:00:00 15.1 17 Oeste 31 Oeste 0 -- -- 60
2019-11-21 13:00:00 14.6 19 Oeste 32 Oeste 0 -- -- 62
2019-11-21 12:00:00 14.1 12 Oeste 23 Oeste 0 -- -- 67
2019-11-21 11:00:00 14.5 13 Oeste 22 Noroeste 0 -- -- 68
2019-11-21 10:00:00 13.1 2 Sudoeste 5 Sudoeste 0 -- -- 82
2019-11-21 09:00:00 10.9 0 Calma 3 Sudoeste 0 -- -- 90
2019-11-21 08:00:00 7.7 0 Calma 4 Norte 0 -- -- 93
2019-11-21 07:00:00 8.6 0 Calma 11 Sudoeste 0 -- -- 92
2019-11-21 06:00:00 10.4 5 Sudoeste 10 Sudoeste 0.1 -- -- 92
2019-11-21 05:00:00 10.2 6 Oeste 20 Sudoeste 0.7 -- -- 91
2019-11-21 04:00:00 10.3 8 Sudoeste 17 Sudoeste 1 -- -- 92
2019-11-21 03:00:00 9.4 3 Sur 10 Sudoeste 1.6 -- -- 93
2019-11-21 02:00:00 7.9 0 Calma 8 Norte 0 -- -- 94
2019-11-21 01:00:00 7.9 2 Norte 5 Oeste 0.1 -- -- 94
2019-11-21 00:00:00 6.8 0 Calma 3 Norte 0 -- -- 93
2019-11-20 23:00:00 6.7 0 Calma 3 Oeste 0 -- -- 93
2019-11-20 22:00:00 7.4 0 Calma 3 Norte 0 -- -- 92
2019-11-20 21:00:00 8.3 0 Calma 2 Oeste 0 -- -- 91
2019-11-20 20:00:00 9.9 0 Calma 11 Oeste 0.5 -- -- 91
2019-11-20 19:00:00 9.9 2 Sudoeste 7 Sudoeste 0.4 -- -- 91
2019-11-20 18:00:00 11.2 0 Calma 7 Sudeste 0.7 -- -- 88
2019-11-20 17:00:00 12.2 3 Sudeste 6 Sudeste 0 -- -- 81
2019-11-20 16:00:00 12.5 4 Sur 9 Sudeste 0 -- -- 80
2019-11-20 15:00:00 12.1 4 Sur 16 Sudeste 0 -- -- 81
2019-11-20 14:00:00 13 8 Sudeste 14 Sudeste 0 -- -- 69
2019-11-20 13:00:00 12.6 5 Sudeste 9 Sudeste 0 -- -- 66
2019-11-20 12:00:00 11.4 2 Sudeste 6 Este 0 -- -- 69
2019-11-20 11:00:00 10 0 Calma 4 Sur 0 -- -- 81
2019-11-20 10:00:00 8.1 0 Calma 3 Noroeste 0 -- -- 85
2019-11-20 09:00:00 6.4 0 Calma 2 Noroeste 0 -- -- 86
2019-11-20 08:00:00 4.2 0 Calma 0 Calma 0 -- -- 88
2019-11-20 07:00:00 3.6 0 Calma 2 Norte 0 -- -- 88
2019-11-20 06:00:00 4.1 0 Calma 3 Oeste 0 -- -- 88
2019-11-20 05:00:00 4.4 2 Norte 5 Norte 0 -- -- 87
2019-11-20 04:00:00 3.5 0 Calma 4 Oeste 0 -- -- 87
2019-11-20 03:00:00 3.5 0 Calma 3 Oeste 0 -- -- 86
2019-11-20 02:00:00 3.7 0 Calma 4 Oeste 0 -- -- 85
2019-11-20 01:00:00 4.6 0 Calma 5 Noroeste 0 -- -- 82
2019-11-20 00:00:00 5.3 0 Calma 6 Norte 0 -- -- 80
2019-11-19 23:00:00 5.6 0 Calma 10 Norte 0 -- -- 79
2019-11-19 22:00:00 5.5 0 Calma 6 Noroeste 0 -- -- 79
2019-11-19 21:00:00 5.8 0 Calma 4 Norte 0 -- -- 79
2019-11-19 20:00:00 6.7 0 Calma 2 Noroeste 0 -- -- 75
2019-11-19 19:00:00 7.9 0 Calma 6 Oeste 0 -- -- 72
2019-11-19 18:00:00 10.2 4 Oeste 10 Sudoeste 0 -- -- 61
2019-11-19 17:00:00 12.4 6 Oeste 18 Oeste 0 -- -- 51
2019-11-19 16:00:00 13.5 9 Oeste 20 Oeste 0 -- -- 52
2019-11-19 15:00:00 13 4 Sur 14 Sudoeste 0 -- -- 66
2019-11-19 14:00:00 13 5 Sur 14 Sudoeste 0 -- -- 62
2019-11-19 13:00:00 13.2 10 Sudoeste 17 Sudoeste 0 -- -- 61
2019-11-19 12:00:00 13.2 9 Oeste 20 Oeste 0 -- -- 56
2019-11-19 11:00:00 13.8 10 Sudoeste 16 Sudoeste 0 -- -- 56
2019-11-19 10:00:00 13.6 3 Sur 9 Sur 0 -- -- 64
2019-11-19 09:00:00 8.7 0 Calma 4 Norte 0 -- -- 81
2019-11-19 08:00:00 5.1 0 Calma 4 Noroeste 0 -- -- 89
2019-11-19 07:00:00 4.7 0 Calma 4 Noroeste 0 -- -- 87
2019-11-19 06:00:00 5.8 3 Noroeste 7 Noroeste 0 -- -- 86
2019-11-19 05:00:00 6.2 0 Calma 9 Noroeste 0 -- -- 83
2019-11-19 04:00:00 7.1 4 Noroeste 8 Noroeste 0 -- -- 83
2019-11-19 03:00:00 7.8 0 Calma 5 Noroeste 0 -- -- 82
2019-11-19 02:00:00 9 2 Noroeste 10 Norte 0 -- -- 79
2019-11-19 01:00:00 9.4 6 Norte 18 Noroeste 0 -- -- 77
2019-11-19 00:00:00 9.3 10 Noroeste 21 Norte 0 -- -- 76
2019-11-18 23:00:00 8.9 5 Norte 10 Norte 0 -- -- 74
2019-11-18 22:00:00 8.6 2 Norte 12 Norte 0 -- -- 73
2019-11-18 21:00:00 9.2 10 Norte 21 Norte 0 -- -- 71
2019-11-18 20:00:00 10.1 13 Norte 29 Norte 0 -- -- 69
2019-11-18 19:00:00 10.7 15 Norte 30 Norte 0 -- -- 70
2019-11-18 18:00:00 10.8 9 Norte 33 Nordeste 0 -- -- 69
2019-11-18 17:00:00 11.1 21 Norte 42 Norte 0 -- -- 68
2019-11-18 16:00:00 13 14 Norte 34 Nordeste 0 -- -- 65
2019-11-18 15:00:00 12.7 19 Norte 37 Norte 0 -- -- 70
2019-11-18 14:00:00 13.5 12 Norte 37 Norte 0 -- -- 73
2019-11-18 13:00:00 13.4 13 Norte 24 Norte 0 -- -- 70
2019-11-18 12:00:00 13.1 14 Norte 22 Norte 0 -- -- 73
2019-11-18 11:00:00 12.6 12 Norte 23 Norte 0 -- -- 76
2019-11-18 10:00:00 11.7 9 Norte 21 Norte 0 -- -- 82
2019-11-18 09:00:00 11.3 13 Norte 22 Norte 0 -- -- 85
2019-11-18 08:00:00 10.5 8 Noroeste 15 Noroeste 0 -- -- 89
2019-11-18 07:00:00 11.1 4 Norte 18 Oeste 0 -- -- 84
2019-11-18 06:00:00 11.5 5 Noroeste 17 Oeste 0 -- -- 82
2019-11-18 05:00:00 11.4 4 Sudoeste 8 Oeste 0.1 -- -- 90
2019-11-18 04:00:00 11.3 4 Oeste 15 Oeste 0.1 -- -- 88
2019-11-18 03:00:00 11.7 8 Oeste 19 Oeste 0.2 -- -- 85
2019-11-18 02:00:00 12.5 4 Oeste 17 Oeste 0 -- -- 76
2019-11-18 01:00:00 13.4 8 Oeste 17 Oeste 0 -- -- 73
2019-11-18 00:00:00 13 6 Oeste 14 Sudoeste 0 -- -- 70
2019-11-17 23:00:00 12.8 7 Sudoeste 17 Sudoeste 0 -- -- 67
2019-11-17 22:00:00 11.7 6 Oeste 9 Oeste 0 -- -- 67
2019-11-17 21:00:00 11.8 6 Oeste 16 Oeste 0 -- -- 65
2019-11-17 20:00:00 11.4 7 Oeste 16 Oeste 0 -- -- 63
2019-11-17 19:00:00 12 12 Oeste 22 Oeste 0 -- -- 63
2019-11-17 18:00:00 11.8 8 Oeste 23 Sudoeste 0 -- -- 62
2019-11-17 17:00:00 12.9 14 Oeste 32 Oeste 0 -- -- 55
2019-11-17 16:00:00 13.6 18 Oeste 35 Oeste 0 -- -- 52
2019-11-17 15:00:00 14 18 Oeste 35 Oeste 0 -- -- 54
2019-11-17 14:00:00 13.1 21 Oeste 36 Oeste 0 -- -- 54
2019-11-17 13:00:00 14.3 17 Oeste 36 Oeste 0 -- -- 47
2019-11-17 12:00:00 13.7 19 Oeste 36 Oeste 0 -- -- 48
2019-11-17 11:00:00 14 17 Oeste 35 Oeste 0 -- -- 46
2019-11-17 10:00:00 13.3 13 Oeste 25 Oeste 0 -- -- 50
2019-11-17 09:00:00 12.1 12 Oeste 22 Oeste 0 -- -- 55
2019-11-17 08:00:00 10.2 7 Oeste 17 Oeste 0 -- -- 57
2019-11-17 07:00:00 10 8 Oeste 21 Oeste 0 -- -- 61
2019-11-17 06:00:00 8.5 3 Este 17 Noroeste 0 -- -- 64
2019-11-17 05:00:00 9.7 9 Noroeste 16 Noroeste 0 -- -- 62
2019-11-17 04:00:00 10.4 11 Noroeste 24 Oeste 0 -- -- 58
2019-11-17 03:00:00 10.7 12 Noroeste 24 Oeste 0 -- -- 58
2019-11-17 02:00:00 10.1 11 Oeste 22 Oeste 0 -- -- 67
2019-11-17 01:00:00 9.6 11 Noroeste 26 Oeste 0.3 -- -- 74
2019-11-17 00:00:00 9.2 4 Noroeste 17 Norte 0 -- -- 68
2019-11-16 23:00:00 7.4 2 Noroeste 10 Oeste 0 -- -- 79
2019-11-16 22:00:00 7.7 2 Noroeste 6 Oeste 0 -- -- 84
2019-11-16 21:00:00 7.6 2 Oeste 12 Noroeste 0 -- -- 87
2019-11-16 20:00:00 8.8 4 Noroeste 12 Norte 0.1 -- -- 81
2019-11-16 19:00:00 9.3 7 Noroeste 17 Noroeste 0 -- -- 76
2019-11-16 18:00:00 9.9 9 Norte 16 Noroeste 0 -- -- 74
2019-11-16 17:00:00 10.6 9 Norte 24 Norte 0 -- -- 68
2019-11-16 16:00:00 10.6 17 Norte 25 Norte 0 -- -- 66
2019-11-16 15:00:00 10.4 17 Norte 31 Norte 0 -- -- 70
2019-11-16 14:00:00 11.6 10 Norte 19 Norte 0 -- -- 69
2019-11-16 13:00:00 12.5 3 Norte 11 Norte 0 -- -- 69
2019-11-16 12:00:00 10.8 7 Noroeste 13 Noroeste 0 -- -- 72
2019-11-16 11:00:00 9.4 6 Noroeste 10 Noroeste 0 -- -- 78
2019-11-16 10:00:00 8.9 5 Noroeste 9 Noroeste 0 -- -- 77
2019-11-16 09:00:00 7.8 2 Sudeste 8 Noroeste 0 -- -- 80
2019-11-16 08:00:00 6.7 2 Oeste 14 Sudeste 0 -- -- 83
2019-11-16 07:00:00 6.4 2 Norte 7 Noroeste 0 -- -- 83
2019-11-16 06:00:00 6.5 0 Calma 12 Norte 0 -- -- 80
2019-11-16 05:00:00 7.4 0 Calma 24 Noroeste 0 -- -- 77
2019-11-16 04:00:00 8 10 Noroeste 21 Noroeste 0 -- -- 79
2019-11-16 03:00:00 6.9 8 Noroeste 19 Norte 0 -- -- 78
2019-11-16 02:00:00 4.9 2 Norte 8 Noroeste 0 -- -- 85
2019-11-16 01:00:00 4.5 0 Calma 4 Norte 0 -- -- 87
2019-11-16 00:00:00 4.5 0 Calma 4 Norte 0 -- -- 87